To NAV CANADA Home Page Login to a new session Search on AWWS site Disclaimer Vers la page française équivalente Tips FAQ What's new on the site To the Forecasts and Observations / NOTAM section To "File a Flight Plan" website Publications and other links Update of the User's profile FIC Telephone Numbers My Weather Data Folder Route Weather Data Regional Weather Data Local Weather Data To the Forecasts and Observations / NOTAM section
Request Generated 11/13/2018 at 18:17:06 UTC . Weather information available at that time is displayed.

METAR/TAF

WHALE COVE/NU    

METAR CYXN 131800Z 32013KT 10SM IC DRSN FEW005 M25/M28 A3017 RMK SF1 SF TR SLP221=
METAR CYXN 131700Z 32014KT 10SM IC DRSN FEW005 M26/M29 A3017 RMK SF1 SF TR SLP219=
METAR CYXN 131600Z 34017G22KT 10SM IC DRSN FEW005 M26/M29 A3015 RMK SF1 SF TR SLP215=

CYXN - No TAF is issued for this station

Your time UTC time
Weather data provided by Environment Canada and NAV CANADA